CYTK

Cytokinetics, Incorporated Historical Stock Prices

$6.28
*  
0.07
1.1%
Get CYTK Alerts
*Delayed - data as of Jul. 7, 2015  -  Find a broker to begin trading CYTK now
Exchange: NASDAQ
Industry: Health Care
Community Rating:
 
 
Symbol List Views
FlashQuotes InfoQuotes
Stock Details
Summary Quote Real-Time Quote After Hours Quote Pre-market Quote Historical Quote Option Chain
CHARTS
Basic Chart Interactive Chart
COMPANY NEWS
Company Headlines Press Releases Market Stream
STOCK ANALYSIS
Analyst Research Guru Analysis Stock Report Competitors Stock Consultant Stock Comparison
FUNDAMENTALS
Call Transcripts Annual Report Income Statement Revenue/EPS SEC Filings Short Interest Dividend History
HOLDINGS
Ownership Summary Institutional Holdings Insiders
(SEC Form 4)
 Save Stocks

Get up to 10 years of daily historical stock prices & volumes.

Select the Timeframe:

Results for: 1 Year, From 07-JUL-2014 TO 07-JUL-2015

Date Open High "High" is the highest sales price the stock has achieved during the regular trading hours, the intra-day high. Low "Low" is the lowest sales price the stock has fallen to during the regular trading hours, the intra-day low. Close / Last "Close" is the period at the end of the trading session. Sometimes used to refer to closing price. Volume "Volume" The closing daily official volumes represented graphically for each trading day.
16:00  6.39  6.41  6.14  6.28 244,091
07/07/2015 6.39 6.41 6.14 6.28 244,291
07/06/2015 6.3 6.48 6.26 6.35 300,315
07/02/2015 6.53 6.55 6.31 6.35 367,636
07/01/2015 6.74 6.76 6.45 6.52 210,513
06/30/2015 6.47 6.75 6.39 6.72 192,623
06/29/2015 6.48 6.75 6.33 6.38 254,088
06/26/2015 6.63 6.66 6.4301 6.6 915,836
06/25/2015 6.65 6.72 6.53 6.64 156,668
06/24/2015 6.72 6.75 6.54 6.61 118,505
06/23/2015 6.71 6.81 6.59 6.74 153,589
06/22/2015 6.54 6.75 6.52 6.69 216,442
06/19/2015 6.46 6.7 6.46 6.51 317,713
06/18/2015 6.33 6.66 6.3 6.45 253,107
06/17/2015 6.32 6.41 6.21 6.31 103,157
06/16/2015 6.22 6.36 6.18 6.27 133,628
06/15/2015 6.39 6.39 6.11 6.25 306,508
06/12/2015 6.49 6.56 6.3401 6.47 154,469
06/11/2015 6.58 6.59 6.45 6.52 130,452
06/10/2015 6.53 6.68 6.39 6.48 235,216
06/09/2015 6.52 6.61 6.36 6.51 230,036
06/08/2015 6.53 6.63 6.43 6.6 181,479
06/05/2015 6.3 6.56 6.2 6.53 236,194
06/04/2015 6.39 6.45 6.17 6.31 236,245
06/03/2015 6.35 6.58 6.2184 6.47 227,398
06/02/2015 6.23 6.47 6.1 6.31 208,804
06/01/2015 6.35 6.48 6.2 6.28 231,702
05/29/2015 6.23 6.53 6.2 6.37 293,202
05/28/2015 6.26 6.35 6.16 6.26 153,361
05/27/2015 6.1 6.3 6.04 6.3 134,183
05/26/2015 6.16 6.18 6.02 6.09 186,806
05/22/2015 6.28 6.28 6.11 6.22 230,688
05/21/2015 6.23 6.31 6.1 6.27 260,235
05/20/2015 6.12 6.4168 6.05 6.21 400,810
05/19/2015 6.26 6.28 5.97 6.12 264,680
05/18/2015 5.9 6.28 5.85 6.26 296,929
05/15/2015 6.03 6.06 5.8 5.96 207,393
05/14/2015 6.18 6.18 5.81 6.02 416,949
05/13/2015 6.56 6.59 6.1 6.19 365,297
05/12/2015 6.63 6.7 6.34 6.51 507,915
05/11/2015 6.46 6.86 6.45 6.65 500,969
05/08/2015 6.1 6.48 6.01 6.38 530,639
05/07/2015 5.72 6.07 5.64 5.99 379,825
05/06/2015 5.51 5.82 5.51 5.7 349,793
05/05/2015 5.63 5.71 5.5 5.51 482,706
05/04/2015 5.62 5.98 5.56 5.68 385,730
05/01/2015 6.08 6.2 5.505 5.65 1,034,420
04/30/2015 6.67 6.92 6.07 6.29 663,713
04/29/2015 6.83 6.94 6.65 6.7 157,116
04/28/2015 6.86 7.01 6.56 6.85 298,166
04/27/2015 7.25 7.32 6.76 6.83 496,391
04/24/2015 7.4 7.43 7.23 7.25 160,961
04/23/2015 7.28 7.45 7.12 7.43 205,561
04/22/2015 7.45 7.59 7.2 7.29 277,025
04/21/2015 7.2 7.49 6.97 7.38 534,509
04/20/2015 6.98 7.15 6.736 7.12 208,719
04/17/2015 7.03 7.13 6.81 6.95 395,734
04/16/2015 7.12 7.2 7.01 7.13 135,335
04/15/2015 7.27 7.28 7.01 7.17 226,163
04/14/2015 7.12 7.3149 7.12 7.19 179,880
04/13/2015 7.24 7.27 7.11 7.12 201,866
04/10/2015 7.1 7.35 7.02 7.26 187,439
04/09/2015 7.14 7.24 6.85 7.07 255,648
04/08/2015 7 7.19 6.93 7.12 258,267
04/07/2015 6.95 7.2499 6.91 6.99 261,856
04/06/2015 7 7.19 6.9203 6.97 224,905
04/02/2015 7.03 7.05 6.78 7.02 231,814
04/01/2015 6.77 7.04 6.61 7 380,466
03/31/2015 7.01 7.07 6.77 6.78 896,807
03/30/2015 7.12 7.2 6.82 7.1 409,899
03/27/2015 7.11 7.3 7.11 7.16 270,220
03/26/2015 6.8 7.28 6.7847 7.12 426,922
03/25/2015 7.68 7.86 6.82 6.85 1,006,237
03/24/2015 7.67 8 7.61 7.67 329,082
03/23/2015 7.74 7.82 7.56 7.67 290,581
03/20/2015 8.03 8.03 7.68 7.76 434,213
03/19/2015 7.66 8.03 7.66 7.95 486,833
03/18/2015 7.79 7.84 7.63 7.68 329,838
03/17/2015 7.9 8.02 7.701 7.84 327,678
03/16/2015 8.04 8.05 7.51 7.89 580,768
03/13/2015 7.97 8.079 7.8181 7.98 549,657
03/12/2015 7.97 8.1 7.9 7.97 283,553
03/11/2015 7.77 8.03 7.63 7.91 510,351
03/10/2015 7.78 7.95 7.65 7.77 332,092
03/09/2015 7.78 7.942 7.68 7.88 267,170
03/06/2015 7.88 8.01 7.79 7.8 331,529
03/05/2015 8.01 8.07 7.77 7.91 356,086
03/04/2015 7.95 8.12 7.8 7.95 360,520
03/03/2015 7.87 8.0499 7.8 7.97 408,151
03/02/2015 7.75 7.97 7.72 7.87 258,170
02/27/2015 8.05 8.07 7.68 7.71 379,806
02/26/2015 7.9 8.02 7.63 7.96 372,460
02/25/2015 7.77 8.05 7.63 7.89 393,288
02/24/2015 8.12 8.12 7.585 7.74 409,373
02/23/2015 8.06 8.35 7.82 8 599,093
02/20/2015 7.86 8.27 7.782 7.94 426,645
02/19/2015 7.91 7.9893 7.8 7.85 254,372
02/18/2015 7.92 8.36 7.633 7.97 623,132
02/17/2015 7.88 8.6096 7.88 8.17 1,170,664
02/13/2015 7.43 7.95 7.3401 7.78 2,172,099
02/12/2015 6.44 6.67 6.28 6.49 214,372
02/11/2015 6.47 6.64 6.3 6.41 143,402
02/10/2015 6.3 6.48 6.14 6.46 257,006
02/09/2015 6.34 6.53 6.22 6.25 217,086
02/06/2015 6.62 6.71 6.34 6.37 237,610
02/05/2015 6.5 6.75 6.39 6.66 224,503
02/04/2015 6.39 6.69 6.27 6.49 359,091
02/03/2015 6.97 7.09 6.4401 6.65 460,710
02/02/2015 7.11 7.18 6.86 6.98 363,400
01/30/2015 7.38 7.44 7 7.09 267,371
01/29/2015 7.31 7.5 7.09 7.45 331,748
01/28/2015 7.74 7.94 7.15 7.31 488,257
01/27/2015 7.54 8.16 7.54 7.72 889,068
01/26/2015 7.4 7.59 7.21 7.57 414,101
01/23/2015 7.07 7.45 7.03 7.38 329,175
01/22/2015 7.23 7.41 6.67 7.05 598,096
01/21/2015 7.55 7.7599 7.06 7.15 484,953
01/20/2015 7.33 7.7 7.32 7.59 487,459
01/16/2015 7.26 7.5899 7.26 7.5 311,556
01/15/2015 7.72 7.72 7.1401 7.3 458,857
01/14/2015 7.37 7.8146 7.34 7.67 387,501
01/13/2015 7.89 7.95 7.37 7.46 513,335
01/12/2015 7.85 8.06 7.645 7.8 527,622
01/09/2015 7.77 7.91 7.48 7.8 548,176
01/08/2015 7.5 8.0699 7.49 7.72 893,107
01/07/2015 7.25 7.5 7.16 7.47 546,178
01/06/2015 7.7 7.84 6.92 7.22 964,887
01/05/2015 7.5 7.98 7.5 7.67 730,824
01/02/2015 8.01 8.16 7.14 7.37 1,675,568
12/31/2014 7.36 8.25 7.24 8.01 2,968,759
12/30/2014 6.68 7 6.67 6.9 824,362
12/29/2014 6.49 6.93 6.25 6.67 1,362,840
12/26/2014 5.94 6.71 5.92 6.14 1,208,729
12/24/2014 5.57 6.14 5.57 5.87 853,429
12/23/2014 5.58 5.58 5.25 5.52 1,311,415
12/22/2014 4.85 4.95 4.84 4.9 180,593
12/19/2014 4.88 4.95 4.75 4.89 245,380
12/18/2014 4.89 4.89 4.76 4.89 213,084
12/17/2014 4.56 4.8 4.5526 4.8 176,525
12/16/2014 4.43 4.73 4.43 4.57 175,517
12/15/2014 4.79 4.89 4.48 4.48 255,595
12/12/2014 4.79 4.9199 4.76 4.78 138,349
12/11/2014 4.81 5 4.81 4.84 252,050
12/10/2014 4.84 4.94 4.74 4.78 215,588
12/09/2014 4.53 4.8948 4.41 4.88 344,839
12/08/2014 4.65 4.83 4.54 4.58 241,245
12/05/2014 4.57 4.72 4.55 4.66 199,336
12/04/2014 4.61 4.77 4.52 4.56 289,069
12/03/2014 4.65 4.75 4.5 4.63 236,852
12/02/2014 4.53 4.772 4.53 4.62 271,763
12/01/2014 4.65 4.68 4.48 4.51 311,462
11/28/2014 4.58 4.98 4.58 4.67 469,110
11/26/2014 4.4 4.67 4.32 4.59 412,417
11/25/2014 4.44 4.49 4.23 4.4 267,118
11/24/2014 4.11 4.43 4.1 4.42 566,125
11/21/2014 4.2 4.2 4.07 4.11 456,819
11/20/2014 4.12 4.24 4.11 4.14 279,738
11/19/2014 4.13 4.2694 4.05 4.16 417,523
11/18/2014 4.17 4.27 4.11 4.16 316,744
11/17/2014 4.23 4.37 4.12 4.16 257,481
11/14/2014 4.25 4.29 4.16 4.23 224,716
11/13/2014 4.38 4.48 4.21 4.24 197,775
11/12/2014 4.38 4.4595 4.265 4.36 221,619
11/11/2014 4.35 4.6 4.19 4.39 556,942
11/10/2014 4.13 4.3799 4.03 4.33 284,764
11/07/2014 4.27 4.27 3.98 4.1 252,267
11/06/2014 4.12 4.3 4.07 4.25 212,494
11/05/2014 4.37 4.3932 4.06 4.14 431,092
11/04/2014 3.92 4.48 3.825 4.3 1,112,920
11/03/2014 3.62 3.77 3.528 3.7 239,955
10/31/2014 3.9 3.9 3.5601 3.67 431,093
10/30/2014 3.66 3.85 3.55 3.8 410,181
10/29/2014 3.59 3.73 3.45 3.65 314,662
10/28/2014 3.46 3.59 3.4 3.57 224,892
10/27/2014 3.51 3.51 3.3 3.43 176,063
10/24/2014 3.46 3.5 3.37 3.5 119,663
10/23/2014 3.37 3.54 3.31 3.45 179,565
10/22/2014 3.44 3.47 3.3 3.33 168,331
10/21/2014 3.49 3.49 3.35 3.41 171,539
10/20/2014 3.28 3.49 3.27 3.47 276,042
10/17/2014 3.5 3.59 3.25 3.26 243,645
10/16/2014 3.27 3.49 3.27 3.4 206,573
10/15/2014 3.2 3.45 3.15 3.41 198,834
10/14/2014 3.33 3.41 3.18 3.27 309,267
10/13/2014 3.1 3.43 3.05 3.29 301,652
10/10/2014 3.25 3.38 3.06 3.07 247,743
10/09/2014 3.45 3.45 3.24 3.28 213,345
10/08/2014 3.43 3.48 3.18 3.45 360,200
10/07/2014 3.53 3.58 3.4 3.45 207,024
10/06/2014 3.6 3.66 3.46 3.57 249,865
10/03/2014 3.57 3.62 3.42 3.605 218,413
10/02/2014 3.43 3.54 3.395 3.51 159,573
10/01/2014 3.56 3.62 3.42 3.45 265,163
09/30/2014 3.67 3.6732 3.49 3.52 528,534
09/29/2014 3.64 3.75 3.53 3.7 307,291
09/26/2014 3.62 3.72 3.51 3.7 371,595
09/25/2014 3.73 3.8199 3.6 3.61 328,400
09/24/2014 3.65 3.87 3.595 3.73 256,232
09/23/2014 3.81 3.86 3.59 3.64 451,714
09/22/2014 4.07 4.1 3.81 3.81 400,869
09/19/2014 3.86 4.16 3.86 4.14 951,141
09/18/2014 3.88 3.94 3.73 3.86 257,866
09/17/2014 3.79 3.95 3.7093 3.87 262,533
09/16/2014 3.76 3.91 3.71 3.75 269,939
09/15/2014 3.8 3.88 3.67 3.78 312,361
09/12/2014 3.93 4.06 3.77 3.8 238,000
09/11/2014 4.25 4.25 3.85 3.96 694,445
09/10/2014 3.66 4.43 3.66 4.29 1,523,193
09/09/2014 3.88 3.92 3.58 3.66 572,367
09/08/2014 3.8 3.92 3.8 3.9 312,596
09/05/2014 3.85 3.92 3.74 3.81 214,115
09/04/2014 4.11 4.12 3.84 3.86 620,693
09/03/2014 4.09 4.13 4 4.09 341,941
09/02/2014 4.26 4.28 4.06 4.07 566,551
08/29/2014 4.31 4.36 4.215 4.28 156,855
08/28/2014 4.38 4.42 4.295 4.31 225,633
08/27/2014 4.38 4.44 4.32 4.41 202,344
08/26/2014 4.38 4.42 4.35 4.38 257,249
08/25/2014 4.35 4.48 4.26 4.39 363,185
08/22/2014 4.37 4.39 4.25 4.3 200,510
08/21/2014 4.38 4.44 4.25 4.38 345,218
08/20/2014 4.43 4.51 4.38 4.4 172,497
08/19/2014 4.47 4.52 4.44 4.46 337,369
08/18/2014 4.59 4.62 4.42 4.47 527,965
08/15/2014 4.55 4.64 4.4 4.52 317,264
08/14/2014 4.49 4.56 4.42 4.5 260,365
08/13/2014 4.4 4.54 4.37 4.46 320,530
08/12/2014 4.3 4.46 4.27 4.39 561,061
08/11/2014 4.18 4.355 4.14 4.33 621,015
08/08/2014 4.23 4.25 4.1 4.13 509,484
08/07/2014 4.23 4.4 4.16 4.19 544,850
08/06/2014 4.12 4.27 4.08 4.18 470,035
08/05/2014 4.19 4.26 4.08 4.17 504,022
08/04/2014 4.2 4.3 4.13 4.25 471,913
08/01/2014 4.24 4.31 4.12 4.16 530,566
07/31/2014 4.19 4.44 4.17 4.23 987,405
07/30/2014 4.16 4.34 4.12 4.16 632,022
07/29/2014 4.15 4.24 4.05 4.0901 620,953
07/28/2014 4.23 4.3 4.11 4.11 414,658
07/25/2014 4.25 4.32 4.1622 4.24 626,765
07/24/2014 4.44 4.485 4.24 4.25 787,760
07/23/2014 4.35 4.49 4.35 4.45 347,451
07/22/2014 4.46 4.51 4.27 4.34 433,168
07/21/2014 4.25 4.49 4.21 4.42 412,687
07/18/2014 4.23 4.43 4.16 4.28 440,301
07/17/2014 4.37 4.41 4.19 4.22 396,497
07/16/2014 4.43 4.48 4.3 4.38 399,890
07/15/2014 4.6 4.7 4.33 4.41 678,066
07/14/2014 4.66 4.71 4.5 4.57 363,151
07/11/2014 4.29 4.69 4.29 4.6 663,826
07/10/2014 4.25 4.35 4.11 4.29 641,243
07/09/2014 4.42 4.52 4.33 4.36 449,472
07/08/2014 4.81 4.86 4.39 4.42 1,234,823
07/07/2014 4.9 4.9 4.765 4.8 803,160
*This data reflects the latest intra-day delayed pricing.
Download Excel icon Download this file in Excel Format

Research Brokers before you trade

Want to trade FX?